Time;durP1;ratioP1;P1;durP2;ratioP2;P2;SDS_P1;SDS_P2;PMS_P1;PMS_P2;Temp;Humidity;BMP_temperature;BMP_pressure;BME280_temperature;BME280_humidity;BME280_pressure;Samples;Min_cycle;Max_cycle;Signal;HPM_P1;HPM_P2
2021/08/28 00:02:14;;;;;;;13.45;6.93;;;;;;;;;;143740;578;46011;-53
2021/08/28 00:04:41;;;;;;;11.75;7.25;;;;;;;;;;143738;577;46018;-54
2021/08/28 00:07:08;;;;;;;11.20;6.45;;;;;;;;;;143744;614;46022;-55
2021/08/28 00:09:35;;;;;;;15.80;7.70;;;;;;;;;;143740;574;46019;-54
2021/08/28 00:12:02;;;;;;;17.98;9.73;;;;;;;;;;143741;636;46010;-53
2021/08/28 00:14:29;;;;;;;19.80;9.45;;;;;;;;;;143740;563;46018;-53
2021/08/28 00:16:56;;;;;;;16.00;8.02;;;;;;;;;;143742;579;46012;-53
2021/08/28 00:19:23;;;;;;;17.45;8.50;;;;;;;;;;143741;602;46018;-53
2021/08/28 00:21:50;;;;;;;15.90;7.82;;;;;;;;;;143741;613;46010;-53
2021/08/28 00:24:17;;;;;;;15.77;8.55;;;;;;;;;;143742;693;46016;-53
2021/08/28 00:26:44;;;;;;;12.50;7.50;;;;;;;;;;143743;573;46012;-53
2021/08/28 00:29:11;;;;;;;19.92;9.57;;;;;;;;;;143740;601;46018;-54
2021/08/28 00:31:38;;;;;;;16.25;9.20;;;;;;;;;;143740;585;46022;-53
2021/08/28 00:34:06;;;;;;;26.10;13.98;;;;;;;;;;143741;616;46018;-54
2021/08/28 00:36:33;;;;;;;21.70;11.75;;;;;;;;;;143744;670;46012;-54
2021/08/28 00:39:00;;;;;;;19.95;10.40;;;;;;;;;;143742;604;46020;-53
2021/08/28 00:41:27;;;;;;;23.80;12.05;;;;;;;;;;143741;727;46010;-53
2021/08/28 00:43:55;;;;;;;20.65;9.55;;;;;;;;;;143741;641;46016;-53
2021/08/28 00:46:22;;;;;;;19.67;9.73;;;;;;;;;;143743;570;46012;-54
2021/08/28 00:48:49;;;;;;;14.70;9.32;;;;;;;;;;143744;586;46018;-53
2021/08/28 00:51:16;;;;;;;16.02;8.73;;;;;;;;;;143740;630;46022;-53
2021/08/28 00:53:43;;;;;;;17.73;9.02;;;;;;;;;;143742;565;46016;-53
2021/08/28 00:56:11;;;;;;;17.45;9.48;;;;;;;;;;143743;581;46012;-53
2021/08/28 00:58:38;;;;;;;19.77;10.60;;;;;;;;;;143741;568;46020;-53
2021/08/28 01:01:16;;;;;;;19.30;9.23;;;;;;;;;;143740;598;46023;-53
2021/08/28 01:03:45;;;;;;;21.98;10.60;;;;;;;;;;143741;577;46016;-53
2021/08/28 01:06:40;;;;;;;19.15;9.48;;;;;;;;;;143741;564;46022;-53
2021/08/28 01:09:34;;;;;;;24.55;10.27;;;;;;;;;;143741;578;46021;-53
2021/08/28 01:12:16;;;;;;;17.95;9.80;;;;;;;;;;143740;576;46010;-53
2021/08/28 01:14:47;;;;;;;17.62;8.82;;;;;;;;;;143740;571;46018;-54
2021/08/28 01:17:16;;;;;;;15.57;8.80;;;;;;;;;;143744;609;46012;-54
2021/08/28 01:20:00;;;;;;;21.00;10.07;;;;;;;;;;143742;583;46018;-53
2021/08/28 01:22:27;;;;;;;14.30;8.77;;;;;;;;;;143740;614;46022;-54
2021/08/28 01:24:56;;;;;;;16.45;8.52;;;;;;;;;;143740;631;46018;-54
2021/08/28 01:27:49;;;;;;;21.25;7.90;;;;;;;;;;143744;601;46022;-53
2021/08/28 01:30:17;;;;;;;14.55;8.05;;;;;;;;;;143739;588;47018;-53
2021/08/28 01:32:45;;;;;;;19.08;8.48;;;;;;;;;;143740;647;46022;-53
2021/08/28 01:35:14;;;;;;;18.20;9.43;;;;;;;;;;143742;590;46016;-54
2021/08/28 01:37:43;;;;;;;17.12;7.95;;;;;;;;;;143742;564;46013;-54
2021/08/28 01:40:13;;;;;;;16.92;7.45;;;;;;;;;;143741;569;46018;-53
2021/08/28 01:42:41;;;;;;;16.83;8.63;;;;;;;;;;143740;608;46022;-54
2021/08/28 01:45:11;;;;;;;15.13;8.25;;;;;;;;;;143742;604;46017;-53
2021/08/28 01:47:42;;;;;;;18.25;8.35;;;;;;;;;;143744;586;46023;-53
2021/08/28 01:50:10;;;;;;;20.98;9.45;;;;;;;;;;143741;564;46018;-53
2021/08/28 01:52:38;;;;;;;15.00;8.38;;;;;;;;;;143739;584;46022;-53
2021/08/28 01:55:06;;;;;;;12.37;7.82;;;;;;;;;;143743;587;46016;-54
2021/08/28 01:57:35;;;;;;;16.02;7.55;;;;;;;;;;143743;592;46012;-54
2021/08/28 02:00:02;;;;;;;17.40;8.07;;;;;;;;;;143743;589;46019;-53
2021/08/28 02:02:29;;;;;;;16.25;7.87;;;;;;;;;;143740;565;46023;-53
2021/08/28 02:04:57;;;;;;;24.23;7.68;;;;;;;;;;143742;582;46016;-53
2021/08/28 02:07:51;;;;;;;18.65;7.65;;;;;;;;;;143743;572;46012;-53
2021/08/28 02:10:51;;;;;;;16.62;7.55;;;;;;;;;;143742;583;46018;-53
2021/08/28 02:13:50;;;;;;;19.65;7.32;;;;;;;;;;143741;563;46022;-53
2021/08/28 02:16:22;;;;;;;13.50;5.95;;;;;;;;;;143739;617;46019;-53
2021/08/28 02:18:59;;;;;;;14.02;6.82;;;;;;;;;;143745;582;46012;-53
2021/08/28 02:21:30;;;;;;;13.18;7.32;;;;;;;;;;143742;611;46018;-54
2021/08/28 02:24:06;;;;;;;20.33;7.43;;;;;;;;;;143740;589;46023;-54
2021/08/28 02:27:00;;;;;;;13.65;7.40;;;;;;;;;;143740;577;46018;-54
2021/08/28 02:29:34;;;;;;;13.82;6.75;;;;;;;;;;143745;583;46022;-53
2021/08/28 02:32:02;;;;;;;13.30;7.20;;;;;;;;;;143742;564;46018;-53
2021/08/28 02:34:33;;;;;;;11.93;6.75;;;;;;;;;;143740;579;46022;-53
2021/08/28 02:37:01;;;;;;;19.35;7.95;;;;;;;;;;143740;611;46018;-53
2021/08/28 02:39:29;;;;;;;13.02;7.35;;;;;;;;;;143745;585;46012;-54
2021/08/28 02:41:58;;;;;;;18.35;6.93;;;;;;;;;;143741;606;47018;-53
2021/08/28 02:44:26;;;;;;;17.77;6.28;;;;;;;;;;143740;609;46022;-53
2021/08/28 02:46:55;;;;;;;11.65;6.32;;;;;;;;;;143739;592;46019;-54
2021/08/28 02:49:23;;;;;;;15.23;7.68;;;;;;;;;;143744;596;46012;-53
2021/08/28 02:51:51;;;;;;;12.25;7.12;;;;;;;;;;143741;610;47018;-53
2021/08/28 02:54:20;;;;;;;13.48;6.68;;;;;;;;;;143740;664;46023;-53
2021/08/28 02:56:49;;;;;;;18.33;7.22;;;;;;;;;;143743;619;46016;-53
2021/08/28 02:59:20;;;;;;;13.82;7.22;;;;;;;;;;143744;577;46012;-53
2021/08/28 03:01:48;;;;;;;14.57;6.62;;;;;;;;;;143740;570;46021;-53
2021/08/28 03:04:18;;;;;;;13.50;7.45;;;;;;;;;;143740;608;46022;-53
2021/08/28 03:06:47;;;;;;;13.62;6.95;;;;;;;;;;143740;610;46018;-53
2021/08/28 03:09:15;;;;;;;11.93;6.75;;;;;;;;;;143745;585;46012;-53
2021/08/28 03:11:44;;;;;;;14.60;6.75;;;;;;;;;;143739;570;47018;-54
2021/08/28 03:14:11;;;;;;;17.85;7.00;;;;;;;;;;143741;577;46010;-53
2021/08/28 03:16:41;;;;;;;17.55;6.80;;;;;;;;;;143740;574;46024;-54
2021/08/28 03:19:10;;;;;;;14.43;6.85;;;;;;;;;;143743;592;46012;-53
2021/08/28 03:21:40;;;;;;;11.43;6.50;;;;;;;;;;143742;565;46019;-53
2021/08/28 03:24:08;;;;;;;16.37;6.78;;;;;;;;;;143739;577;46010;-54
2021/08/28 03:26:36;;;;;;;10.82;6.57;;;;;;;;;;143739;566;46018;-53
2021/08/28 03:29:05;;;;;;;15.85;6.85;;;;;;;;;;143742;699;46013;-53
2021/08/28 03:31:32;;;;;;;19.40;7.25;;;;;;;;;;143740;569;46021;-53
2021/08/28 03:34:00;;;;;;;24.35;9.38;;;;;;;;;;143731;576;46022;-53
2021/08/28 03:36:28;;;;;;;28.95;10.63;;;;;;;;;;143724;594;46018;-53
2021/08/28 03:38:55;;;;;;;17.87;8.65;;;;;;;;;;143728;607;46023;-53
2021/08/28 03:41:22;;;;;;;14.02;7.40;;;;;;;;;;143727;564;46018;-53
2021/08/28 03:43:49;;;;;;;17.90;6.97;;;;;;;;;;143726;586;46022;-54
2021/08/28 03:46:17;;;;;;;13.27;6.55;;;;;;;;;;143725;564;46018;-53
2021/08/28 03:48:44;;;;;;;19.87;7.87;;;;;;;;;;143726;570;46022;-53
2021/08/28 03:51:11;;;;;;;22.80;8.68;;;;;;;;;;143728;633;46019;-53
2021/08/28 03:53:38;;;;;;;20.75;7.90;;;;;;;;;;143726;592;46010;-53
2021/08/28 03:56:06;;;;;;;20.40;8.45;;;;;;;;;;143725;569;46018;-53
2021/08/28 03:58:34;;;;;;;18.00;10.85;;;;;;;;;;143728;619;46022;-54
2021/08/28 04:01:01;;;;;;;18.55;10.93;;;;;;;;;;143728;625;46021;-53
2021/08/28 04:03:28;;;;;;;19.33;11.73;;;;;;;;;;143726;616;46010;-54
2021/08/28 04:05:55;;;;;;;30.75;23.55;;;;;;;;;;143725;564;46018;-54
2021/08/28 04:08:22;;;;;;;27.90;16.65;;;;;;;;;;143726;622;46023;-54
2021/08/28 04:10:49;;;;;;;20.45;12.63;;;;;;;;;;143727;598;46047;-54
2021/08/28 04:13:16;;;;;;;18.15;9.13;;;;;;;;;;143726;564;46022;-54
2021/08/28 04:15:43;;;;;;;25.00;9.88;;;;;;;;;;143729;727;46025;-54
2021/08/28 04:18:10;;;;;;;24.10;10.38;;;;;;;;;;143729;609;46022;-54
2021/08/28 04:20:37;;;;;;;18.60;9.57;;;;;;;;;;143727;569;46028;-53
2021/08/28 04:23:04;;;;;;;16.52;8.80;;;;;;;;;;143725;605;47010;-53
2021/08/28 04:25:31;;;;;;;16.83;8.57;;;;;;;;;;143725;596;46018;-53
2021/08/28 04:28:02;;;;;;;16.10;9.10;;;;;;;;;;143728;566;46022;-53
2021/08/28 04:30:29;;;;;;;15.63;9.15;;;;;;;;;;143728;592;46019;-53
2021/08/28 04:32:56;;;;;;;13.75;8.35;;;;;;;;;;143730;596;46022;-53
2021/08/28 04:35:23;;;;;;;16.08;8.52;;;;;;;;;;143741;581;46016;-53
2021/08/28 04:37:50;;;;;;;15.20;8.45;;;;;;;;;;143744;640;46012;-53
2021/08/28 04:40:17;;;;;;;17.30;8.93;;;;;;;;;;143740;569;46020;-53
2021/08/28 04:42:45;;;;;;;17.35;8.57;;;;;;;;;;143742;612;46010;-53
2021/08/28 04:45:12;;;;;;;22.33;9.10;;;;;;;;;;143741;569;46019;-53
2021/08/28 04:47:40;;;;;;;18.35;7.95;;;;;;;;;;143745;610;46012;-54
2021/08/28 04:50:08;;;;;;;19.08;8.32;;;;;;;;;;143741;602;46020;-53
2021/08/28 04:52:35;;;;;;;18.02;7.90;;;;;;;;;;143741;629;46010;-53
2021/08/28 04:55:02;;;;;;;16.20;8.43;;;;;;;;;;143741;592;46018;-53
2021/08/28 04:57:29;;;;;;;18.67;8.77;;;;;;;;;;143743;611;46012;-52
2021/08/28 04:59:56;;;;;;;13.65;8.18;;;;;;;;;;143743;609;46019;-53
2021/08/28 05:02:23;;;;;;;14.80;8.02;;;;;;;;;;143741;593;46010;-52
2021/08/28 05:04:50;;;;;;;25.88;13.27;;;;;;;;;;143741;580;46020;-52
2021/08/28 05:07:17;;;;;;;18.05;9.18;;;;;;;;;;143744;576;46012;-52
2021/08/28 05:09:44;;;;;;;29.75;19.90;;;;;;;;;;143744;611;46018;-52
2021/08/28 05:12:11;;;;;;;20.88;12.35;;;;;;;;;;143737;563;46022;-52
2021/08/28 05:14:39;;;;;;;21.92;12.70;;;;;;;;;;143738;588;46019;-52
2021/08/28 05:17:06;;;;;;;27.67;16.12;;;;;;;;;;143743;564;46022;-52
2021/08/28 05:19:33;;;;;;;21.58;12.05;;;;;;;;;;143742;586;46018;-52
2021/08/28 05:22:01;;;;;;;20.23;11.12;;;;;;;;;;143740;567;46011;-52
2021/08/28 05:24:27;;;;;;;23.38;11.05;;;;;;;;;;143740;589;46018;-52
2021/08/28 05:26:54;;;;;;;24.08;12.32;;;;;;;;;;143746;579;46012;-52
2021/08/28 05:29:21;;;;;;;15.60;10.50;;;;;;;;;;143743;570;46020;-52
2021/08/28 05:31:48;;;;;;;21.25;9.88;;;;;;;;;;143739;581;47010;-53
2021/08/28 05:34:15;;;;;;;15.18;9.98;;;;;;;;;;143741;585;46018;-52
2021/08/28 05:36:42;;;;;;;20.40;9.88;;;;;;;;;;143742;584;46012;-52
2021/08/28 05:39:09;;;;;;;22.67;12.85;;;;;;;;;;143742;576;46018;-53
2021/08/28 05:41:39;;;;;;;26.70;11.48;;;;;;;;;;143737;566;46022;-52
2021/08/28 05:44:06;;;;;;;20.58;10.95;;;;;;;;;;143740;570;46019;-52
2021/08/28 05:46:33;;;;;;;19.55;9.80;;;;;;;;;;143744;620;46012;-52
2021/08/28 05:49:00;;;;;;;29.40;8.50;;;;;;;;;;143744;730;46018;-52
2021/08/28 05:51:27;;;;;;;17.55;8.98;;;;;;;;;;143741;583;46022;-52
2021/08/28 05:53:54;;;;;;;21.92;10.13;;;;;;;;;;143743;626;46016;-52
2021/08/28 05:56:21;;;;;;;21.40;10.65;;;;;;;;;;143743;571;46022;-52
2021/08/28 05:58:48;;;;;;;21.25;9.43;;;;;;;;;;143742;577;47044;-52
2021/08/28 06:01:16;;;;;;;19.92;10.13;;;;;;;;;;143742;592;46010;-53
2021/08/28 06:03:43;;;;;;;25.73;13.27;;;;;;;;;;143739;572;47014;-52
2021/08/28 06:06:09;;;;;;;33.10;17.83;;;;;;;;;;143744;661;46012;-52
2021/08/28 06:08:36;;;;;;;28.67;16.90;;;;;;;;;;143741;594;47018;-52
2021/08/28 06:11:04;;;;;;;30.33;15.20;;;;;;;;;;143742;579;46010;-53
2021/08/28 06:13:31;;;;;;;27.77;15.32;;;;;;;;;;143743;585;46017;-53
2021/08/28 06:15:58;;;;;;;28.17;13.95;;;;;;;;;;143745;569;46012;-52
2021/08/28 06:18:25;;;;;;;29.85;12.57;;;;;;;;;;143741;573;46020;-53
2021/08/28 06:20:52;;;;;;;30.65;11.98;;;;;;;;;;143741;596;46010;-53
2021/08/28 06:23:18;;;;;;;28.70;10.52;;;;;;;;;;143741;602;46016;-53
2021/08/28 06:25:45;;;;;;;23.87;9.00;;;;;;;;;;143745;627;46022;-53
2021/08/28 06:28:12;;;;;;;23.02;9.52;;;;;;;;;;143740;587;47019;-53
2021/08/28 06:30:39;;;;;;;29.75;9.73;;;;;;;;;;143741;608;46023;-53
2021/08/28 06:33:06;;;;;;;20.33;8.15;;;;;;;;;;143741;581;46018;-53
2021/08/28 06:35:34;;;;;;;16.35;7.93;;;;;;;;;;143744;569;46013;-53
2021/08/28 06:38:01;;;;;;;22.27;8.30;;;;;;;;;;143742;571;46021;-53
2021/08/28 06:40:28;;;;;;;20.75;9.07;;;;;;;;;;143742;665;46022;-53
2021/08/28 06:42:55;;;;;;;18.40;8.55;;;;;;;;;;143744;579;46017;-53
2021/08/28 06:45:22;;;;;;;22.20;8.25;;;;;;;;;;143747;622;46012;-53
2021/08/28 06:47:49;;;;;;;19.73;8.35;;;;;;;;;;143742;569;46020;-53
2021/08/28 06:50:16;;;;;;;13.60;7.25;;;;;;;;;;143742;612;46022;-54
2021/08/28 06:52:43;;;;;;;19.20;8.43;;;;;;;;;;143740;610;46019;-54
2021/08/28 06:55:10;;;;;;;20.58;9.20;;;;;;;;;;143746;593;46012;-54
2021/08/28 06:57:37;;;;;;;21.20;7.90;;;;;;;;;;143742;585;46020;-54
2021/08/28 07:00:05;;;;;;;17.87;7.80;;;;;;;;;;143741;575;47010;-55
2021/08/28 07:02:32;;;;;;;23.35;8.43;;;;;;;;;;143744;612;46016;-55
2021/08/28 07:04:59;;;;;;;18.17;8.32;;;;;;;;;;143746;580;46013;-54
2021/08/28 07:07:29;;;;;;;16.87;8.07;;;;;;;;;;143741;607;47018;-55
2021/08/28 07:09:56;;;;;;;16.67;8.55;;;;;;;;;;143740;565;47010;-55
2021/08/28 07:12:23;;;;;;;18.25;8.15;;;;;;;;;;143738;613;46017;-54
2021/08/28 07:14:50;;;;;;;19.70;9.00;;;;;;;;;;143745;612;46023;-54
2021/08/28 07:17:18;;;;;;;17.87;8.65;;;;;;;;;;143743;585;46018;-54
2021/08/28 07:19:45;;;;;;;20.20;9.35;;;;;;;;;;143741;569;47010;-55
2021/08/28 07:22:12;;;;;;;19.52;10.48;;;;;;;;;;143743;569;46016;-54
2021/08/28 07:24:39;;;;;;;22.85;11.50;;;;;;;;;;143746;601;46012;-55
2021/08/28 07:27:06;;;;;;;17.85;11.73;;;;;;;;;;143742;581;46020;-54
2021/08/28 07:29:33;;;;;;;18.85;9.57;;;;;;;;;;143742;657;46011;-55
2021/08/28 07:32:00;;;;;;;21.85;9.18;;;;;;;;;;143743;630;46016;-54
2021/08/28 07:34:27;;;;;;;18.70;8.35;;;;;;;;;;143746;592;46013;-54
2021/08/28 07:36:54;;;;;;;15.98;8.10;;;;;;;;;;143742;607;46021;-54
2021/08/28 07:39:21;;;;;;;19.35;9.20;;;;;;;;;;143741;613;46022;-54
2021/08/28 07:41:48;;;;;;;31.17;10.38;;;;;;;;;;143742;617;46018;-54
2021/08/28 07:44:15;;;;;;;22.45;10.90;;;;;;;;;;143744;566;46023;-54
2021/08/28 07:46:42;;;;;;;25.08;11.15;;;;;;;;;;143743;564;46047;-54
2021/08/28 07:49:09;;;;;;;22.83;10.65;;;;;;;;;;143742;593;46022;-54
2021/08/28 07:51:36;;;;;;;21.62;9.85;;;;;;;;;;143741;586;46018;-53
2021/08/28 07:54:03;;;;;;;29.30;10.57;;;;;;;;;;143745;584;46012;-53
2021/08/28 07:56:30;;;;;;;22.77;9.73;;;;;;;;;;143743;614;46040;-53
2021/08/28 07:58:58;;;;;;;25.85;12.57;;;;;;;;;;143741;618;46023;-53
2021/08/28 08:01:25;;;;;;;31.27;14.82;;;;;;;;;;143740;626;46018;-53
2021/08/28 08:03:52;;;;;;;22.67;11.75;;;;;;;;;;143745;625;46013;-53
2021/08/28 08:06:19;;;;;;;17.58;10.80;;;;;;;;;;143743;578;46021;-53
2021/08/28 08:08:45;;;;;;;21.15;12.93;;;;;;;;;;143742;646;46022;-54
2021/08/28 08:11:16;;;;;;;20.42;11.32;;;;;;;;;;143743;575;46016;-54
2021/08/28 08:13:44;;;;;;;19.55;11.90;;;;;;;;;;143746;577;46012;-54
2021/08/28 08:16:12;;;;;;;19.45;9.93;;;;;;;;;;143742;595;46020;-53
2021/08/28 08:18:39;;;;;;;21.90;9.85;;;;;;;;;;143742;634;46010;-54
2021/08/28 08:21:06;;;;;;;21.42;11.00;;;;;;;;;;143744;673;46016;-54
2021/08/28 08:23:33;;;;;;;18.50;10.68;;;;;;;;;;143745;625;46012;-54
2021/08/28 08:26:00;;;;;;;19.95;10.88;;;;;;;;;;143742;566;47018;-54
2021/08/28 08:28:27;;;;;;;21.27;12.20;;;;;;;;;;143741;637;46010;-53
2021/08/28 08:30:54;;;;;;;22.35;11.65;;;;;;;;;;143739;642;46018;-53
2021/08/28 08:33:21;;;;;;;19.05;11.60;;;;;;;;;;143744;727;46022;-53
2021/08/28 08:35:48;;;;;;;23.05;10.73;;;;;;;;;;143741;571;47018;-53
2021/08/28 08:38:15;;;;;;;23.15;8.95;;;;;;;;;;143741;656;46010;-53
2021/08/28 08:40:42;;;;;;;24.83;9.88;;;;;;;;;;143742;589;46018;-54
2021/08/28 08:43:09;;;;;;;22.70;8.63;;;;;;;;;;143745;598;46012;-54
2021/08/28 08:45:37;;;;;;;24.08;10.43;;;;;;;;;;143741;609;47018;-53
2021/08/28 08:48:05;;;;;;;20.62;8.57;;;;;;;;;;143742;573;46010;-53
2021/08/28 08:50:32;;;;;;;23.87;11.73;;;;;;;;;;143740;570;46019;-54
2021/08/28 08:53:03;;;;;;;15.95;7.60;;;;;;;;;;143746;590;46012;-54
2021/08/28 08:55:30;;;;;;;16.25;7.70;;;;;;;;;;143742;609;46020;-53
2021/08/28 08:57:58;;;;;;;13.98;8.10;;;;;;;;;;143742;569;46011;-53
2021/08/28 09:00:25;;;;;;;20.27;9.68;;;;;;;;;;143741;590;46018;-53
2021/08/28 09:02:52;;;;;;;13.13;7.53;;;;;;;;;;143745;573;46012;-53
2021/08/28 09:05:19;;;;;;;28.95;8.00;;;;;;;;;;143742;610;46020;-53
2021/08/28 09:07:46;;;;;;;19.30;7.43;;;;;;;;;;143741;593;47010;-53
2021/08/28 09:10:13;;;;;;;15.75;7.53;;;;;;;;;;143742;685;46024;-53
2021/08/28 09:12:42;;;;;;;15.02;8.32;;;;;;;;;;143746;585;46023;-53
2021/08/28 09:15:13;;;;;;;15.65;6.97;;;;;;;;;;143743;625;46020;-54
2021/08/28 09:17:43;;;;;;;20.48;7.43;;;;;;;;;;143743;569;46010;-53
2021/08/28 09:20:23;;;;;;;17.12;7.47;;;;;;;;;;143741;628;46019;-53
2021/08/28 09:23:02;;;;;;;17.10;7.75;;;;;;;;;;143743;658;46012;-53
2021/08/28 09:25:29;;;;;;;17.00;7.72;;;;;;;;;;143742;567;47018;-54
2021/08/28 09:27:56;;;;;;;13.93;7.57;;;;;;;;;;143743;603;46010;-53
2021/08/28 09:30:44;;;;;;;14.77;7.30;;;;;;;;;;143744;578;46016;-53
2021/08/28 09:33:24;;;;;;;17.83;7.78;;;;;;;;;;143746;605;46022;-53
2021/08/28 09:35:52;;;;;;;18.33;6.87;;;;;;;;;;143744;588;47018;-53
2021/08/28 09:38:21;;;;;;;17.33;6.85;;;;;;;;;;143744;564;46010;-54
2021/08/28 09:40:55;;;;;;;22.50;7.43;;;;;;;;;;143744;644;46017;-53
2021/08/28 09:43:23;;;;;;;16.45;7.97;;;;;;;;;;143745;588;46012;-54
2021/08/28 09:45:53;;;;;;;19.58;7.78;;;;;;;;;;143743;639;46020;-54
2021/08/28 09:48:27;;;;;;;14.75;7.15;;;;;;;;;;143742;566;46010;-53
2021/08/28 09:50:54;;;;;;;15.90;7.68;;;;;;;;;;143743;595;46016;-54
2021/08/28 09:53:27;;;;;;;14.57;6.90;;;;;;;;;;143746;572;46012;-55
2021/08/28 09:55:56;;;;;;;19.15;8.05;;;;;;;;;;143742;581;46020;-55
2021/08/28 09:58:28;;;;;;;13.60;7.05;;;;;;;;;;143742;620;46010;-54
2021/08/28 10:01:03;;;;;;;13.02;7.00;;;;;;;;;;143742;575;46018;-54
2021/08/28 10:03:32;;;;;;;13.98;7.43;;;;;;;;;;143745;588;46022;-54
2021/08/28 10:06:02;;;;;;;12.43;6.75;;;;;;;;;;143745;622;46018;-54
2021/08/28 10:08:31;;;;;;;14.98;7.47;;;;;;;;;;143742;630;46010;-54
2021/08/28 10:11:01;;;;;;;13.90;6.97;;;;;;;;;;143743;610;46019;-54
2021/08/28 10:13:30;;;;;;;12.80;6.62;;;;;;;;;;143744;578;46012;-54
2021/08/28 10:15:58;;;;;;;21.02;7.68;;;;;;;;;;143743;590;46018;-55
2021/08/28 10:18:25;;;;;;;19.67;7.32;;;;;;;;;;143741;607;47010;-54
2021/08/28 10:20:55;;;;;;;17.67;7.20;;;;;;;;;;143742;574;46018;-54
2021/08/28 10:23:24;;;;;;;10.90;6.85;;;;;;;;;;143745;655;46012;-55
2021/08/28 10:25:52;;;;;;;14.52;6.82;;;;;;;;;;143737;576;47019;-54
2021/08/28 10:28:20;;;;;;;13.40;6.75;;;;;;;;;;143741;571;46023;-55
2021/08/28 10:30:48;;;;;;;13.77;6.80;;;;;;;;;;143744;577;46016;-54
2021/08/28 10:33:16;;;;;;;12.70;6.60;;;;;;;;;;143744;570;46012;-55
2021/08/28 10:35:44;;;;;;;18.05;7.12;;;;;;;;;;143742;594;46021;-54
2021/08/28 10:38:12;;;;;;;13.00;6.55;;;;;;;;;;143740;617;47010;-55
2021/08/28 10:40:41;;;;;;;17.87;6.90;;;;;;;;;;143744;578;46017;-54
2021/08/28 10:43:09;;;;;;;14.25;6.20;;;;;;;;;;143745;576;46012;-55
2021/08/28 10:45:39;;;;;;;16.58;7.00;;;;;;;;;;143744;610;46018;-54
2021/08/28 10:48:08;;;;;;;15.57;7.03;;;;;;;;;;143742;565;46011;-54
2021/08/28 10:50:39;;;;;;;18.00;6.82;;;;;;;;;;143741;569;46019;-55
2021/08/28 10:53:07;;;;;;;16.05;7.62;;;;;;;;;;143746;636;46012;-55
2021/08/28 10:55:44;;;;;;;12.93;7.53;;;;;;;;;;143741;569;46020;-54
2021/08/28 10:58:22;;;;;;;15.57;7.00;;;;;;;;;;143741;614;46010;-54
2021/08/28 11:00:51;;;;;;;17.27;7.28;;;;;;;;;;143741;584;46016;-54
2021/08/28 11:03:27;;;;;;;18.27;6.85;;;;;;;;;;143741;643;46012;-54
2021/08/28 11:06:24;;;;;;;22.67;9.00;;;;;;;;;;143742;578;46018;-54
2021/08/28 11:09:01;;;;;;;18.17;8.88;;;;;;;;;;143738;594;47010;-54
2021/08/28 11:11:38;;;;;;;18.75;6.95;;;;;;;;;;143743;635;46010;-54
2021/08/28 11:14:10;;;;;;;18.65;6.90;;;;;;;;;;143743;669;46012;-55
2021/08/28 11:17:03;;;;;;;18.90;7.20;;;;;;;;;;143740;627;46020;-54
2021/08/28 11:19:34;;;;;;;13.57;6.70;;;;;;;;;;143740;627;46023;-53
2021/08/28 11:22:05;;;;;;;18.60;6.95;;;;;;;;;;143742;585;46016;-54
2021/08/28 11:24:32;;;;;;;13.15;5.95;;;;;;;;;;143743;639;46013;-54
2021/08/28 11:27:04;;;;;;;14.98;6.80;;;;;;;;;;143740;629;46021;-54
2021/08/28 11:30:03;;;;;;;21.55;9.27;;;;;;;;;;143740;615;46022;-54
2021/08/28 11:32:30;;;;;;;21.62;6.85;;;;;;;;;;143742;610;46017;-54
2021/08/28 11:34:59;;;;;;;16.05;7.03;;;;;;;;;;143741;576;46012;-54
2021/08/28 11:37:43;;;;;;;15.48;7.03;;;;;;;;;;143741;578;46020;-54
2021/08/28 11:40:27;;;;;;;14.00;6.45;;;;;;;;;;143740;581;46023;-54
2021/08/28 11:42:54;;;;;;;20.20;7.37;;;;;;;;;;143739;644;46018;-54
2021/08/28 11:45:32;;;;;;;13.55;6.78;;;;;;;;;;143743;592;46012;-54
2021/08/28 11:47:59;;;;;;;16.35;6.93;;;;;;;;;;143742;588;46019;-54
2021/08/28 11:50:33;;;;;;;21.67;7.53;;;;;;;;;;143741;572;46010;-53
2021/08/28 11:53:00;;;;;;;13.95;6.57;;;;;;;;;;143741;616;46016;-53
2021/08/28 11:55:28;;;;;;;15.35;6.28;;;;;;;;;;143743;604;46012;-54
2021/08/28 11:58:13;;;;;;;12.18;6.40;;;;;;;;;;143742;620;46018;-53
2021/08/28 12:00:40;;;;;;;17.90;7.30;;;;;;;;;;143740;566;46022;-54
2021/08/28 12:03:08;;;;;;;13.50;6.95;;;;;;;;;;143742;582;46019;-54
2021/08/28 12:05:36;;;;;;;16.10;7.43;;;;;;;;;;143743;607;46020;-54
2021/08/28 12:08:03;;;;;;;12.70;6.57;;;;;;;;;;143743;590;46018;-54
2021/08/28 12:10:31;;;;;;;13.27;6.50;;;;;;;;;;143741;623;46023;-53
2021/08/28 12:13:01;;;;;;;14.85;6.93;;;;;;;;;;143742;587;46016;-53
2021/08/28 12:15:29;;;;;;;19.73;7.20;;;;;;;;;;143745;681;46022;-53
2021/08/28 12:17:58;;;;;;;12.15;6.32;;;;;;;;;;143742;564;46019;-53
2021/08/28 12:20:27;;;;;;;12.77;6.78;;;;;;;;;;143740;575;46022;-53
2021/08/28 12:22:56;;;;;;;13.52;6.97;;;;;;;;;;143742;634;46016;-53
2021/08/28 12:25:24;;;;;;;23.80;7.00;;;;;;;;;;143745;605;46012;-53
2021/08/28 12:27:53;;;;;;;16.62;7.35;;;;;;;;;;143743;579;46018;-53
2021/08/28 12:30:23;;;;;;;17.77;6.72;;;;;;;;;;143740;577;46010;-53
2021/08/28 12:32:50;;;;;;;13.10;6.95;;;;;;;;;;143742;572;46017;-53
2021/08/28 12:35:17;;;;;;;13.45;6.87;;;;;;;;;;143742;601;46012;-53
2021/08/28 12:37:44;;;;;;;11.60;6.50;;;;;;;;;;143740;569;46020;-53
2021/08/28 12:40:13;;;;;;;17.12;6.32;;;;;;;;;;143740;663;46011;-53
2021/08/28 12:42:45;;;;;;;14.23;6.70;;;;;;;;;;143740;665;46018;-53
2021/08/28 12:45:15;;;;;;;12.35;7.05;;;;;;;;;;143744;594;46012;-53
2021/08/28 12:47:44;;;;;;;14.48;6.43;;;;;;;;;;143743;578;46019;-53
2021/08/28 12:50:13;;;;;;;15.70;6.18;;;;;;;;;;143739;593;46022;-53
2021/08/28 12:52:42;;;;;;;17.00;6.43;;;;;;;;;;143740;578;46018;-53
2021/08/28 12:55:28;;;;;;;19.62;6.75;;;;;;;;;;143743;566;46012;-53
2021/08/28 12:57:57;;;;;;;11.90;6.32;;;;;;;;;;143741;588;46018;-53
2021/08/28 13:00:25;;;;;;;13.65;6.40;;;;;;;;;;143740;603;46010;-53
2021/08/28 13:02:52;;;;;;;11.70;6.47;;;;;;;;;;143740;611;46019;-53
2021/08/28 13:05:31;;;;;;;13.60;6.55;;;;;;;;;;143743;582;46022;-53
2021/08/28 13:08:00;;;;;;;13.93;6.60;;;;;;;;;;143741;588;46035;-53
2021/08/28 13:10:29;;;;;;;13.77;6.95;;;;;;;;;;143742;570;46023;-54
2021/08/28 13:13:06;;;;;;;15.25;6.35;;;;;;;;;;143741;606;46016;-53
2021/08/28 13:15:40;;;;;;;14.00;6.87;;;;;;;;;;143744;585;46012;-53
2021/08/28 13:18:15;;;;;;;13.82;6.87;;;;;;;;;;143741;570;46019;-53
2021/08/28 13:21:00;;;;;;;14.07;7.25;;;;;;;;;;143740;570;46022;-53
2021/08/28 13:23:30;;;;;;;14.75;6.65;;;;;;;;;;143742;583;46017;-53
2021/08/28 13:26:05;;;;;;;11.73;6.30;;;;;;;;;;143745;565;46012;-53
2021/08/28 13:28:46;;;;;;;16.87;7.70;;;;;;;;;;143742;639;47018;-53
2021/08/28 13:31:30;;;;;;;15.02;6.50;;;;;;;;;;143739;611;47011;-53
2021/08/28 13:34:02;;;;;;;15.88;6.95;;;;;;;;;;143738;575;46019;-53
2021/08/28 13:36:30;;;;;;;14.07;7.05;;;;;;;;;;143745;575;46012;-53
2021/08/28 13:38:58;;;;;;;15.38;7.18;;;;;;;;;;143741;618;46020;-53
2021/08/28 13:41:25;;;;;;;15.02;6.95;;;;;;;;;;143740;631;46023;-53
2021/08/28 13:43:52;;;;;;;16.05;6.87;;;;;;;;;;143740;575;46018;-53
2021/08/28 13:46:20;;;;;;;16.67;6.80;;;;;;;;;;143743;579;46013;-53
2021/08/28 13:48:47;;;;;;;10.50;6.40;;;;;;;;;;143740;627;47018;-53
2021/08/28 13:51:14;;;;;;;12.82;6.87;;;;;;;;;;143740;664;46010;-53
2021/08/28 13:53:41;;;;;;;14.93;6.20;;;;;;;;;;143740;564;46018;-53
2021/08/28 13:56:07;;;;;;;11.80;6.28;;;;;;;;;;143750;798;46010;-53
2021/08/28 13:58:34;;;;;;;14.43;6.97;;;;;;;;;;143742;680;46018;-53
2021/08/28 14:01:01;;;;;;;14.65;7.22;;;;;;;;;;143740;591;46010;-53
2021/08/28 14:03:28;;;;;;;18.33;7.22;;;;;;;;;;143740;633;46018;-53
2021/08/28 14:05:55;;;;;;;11.85;6.45;;;;;;;;;;143744;584;46022;-53
2021/08/28 14:08:22;;;;;;;14.27;6.97;;;;;;;;;;143742;700;46019;-53
2021/08/28 14:10:49;;;;;;;18.02;6.82;;;;;;;;;;143740;611;46023;-53
2021/08/28 14:13:16;;;;;;;18.02;7.30;;;;;;;;;;143740;594;46018;-53
2021/08/28 14:15:44;;;;;;;13.48;6.82;;;;;;;;;;143744;648;46022;-53
2021/08/28 14:18:11;;;;;;;16.30;6.28;;;;;;;;;;143737;569;47021;-53
2021/08/28 14:20:38;;;;;;;13.40;7.28;;;;;;;;;;143741;605;46022;-53
2021/08/28 14:23:05;;;;;;;14.85;6.45;;;;;;;;;;143739;628;46018;-53
2021/08/28 14:25:32;;;;;;;16.58;6.72;;;;;;;;;;143743;619;46012;-53
2021/08/28 14:28:00;;;;;;;13.85;6.50;;;;;;;;;;143743;571;46018;-53
2021/08/28 14:30:26;;;;;;;18.80;6.72;;;;;;;;;;143738;654;47010;-53
2021/08/28 14:32:54;;;;;;;18.08;6.82;;;;;;;;;;143740;582;46019;-53
2021/08/28 14:35:21;;;;;;;18.77;7.25;;;;;;;;;;143742;564;46012;-53
2021/08/28 14:37:48;;;;;;;18.62;7.30;;;;;;;;;;143740;644;46012;-53
2021/08/28 14:40:15;;;;;;;11.80;5.85;;;;;;;;;;143740;631;46010;-53
2021/08/28 14:42:42;;;;;;;17.83;6.97;;;;;;;;;;143739;564;46024;-53